createdAt,value
2023-05-12T00:00:49.613Z,10.18
2023-05-12T00:03:21.770Z,10.14
2023-05-12T00:05:54.429Z,10.13
2023-05-12T00:08:26.668Z,10.12
2023-05-12T00:10:58.992Z,10.12
2023-05-12T00:13:31.350Z,10.13
2023-05-12T00:16:03.672Z,10.17
2023-05-12T00:18:36.129Z,10.18
2023-05-12T00:21:08.945Z,10.19
2023-05-12T00:23:41.361Z,10.20
2023-05-12T00:26:13.562Z,10.19
2023-05-12T00:28:47.624Z,10.22
2023-05-12T00:31:20.000Z,10.23
2023-05-12T00:33:52.163Z,10.24
2023-05-12T00:36:24.764Z,10.26
2023-05-12T00:38:57.353Z,10.24
2023-05-12T00:41:29.628Z,10.24
2023-05-12T00:44:01.922Z,10.26
2023-05-12T00:46:34.825Z,10.29
2023-05-12T00:49:08.537Z,10.33
2023-05-12T00:51:41.485Z,10.36
2023-05-12T00:54:13.743Z,10.40
2023-05-12T00:56:45.922Z,10.43
2023-05-12T00:59:18.274Z,10.46
2023-05-12T01:01:51.815Z,10.50
2023-05-12T01:04:24.665Z,10.51
2023-05-12T01:07:01.239Z,10.54
2023-05-12T01:09:33.594Z,10.54
2023-05-12T01:12:06.308Z,10.52
2023-05-12T01:14:38.596Z,10.48
2023-05-12T01:17:14.681Z,10.46
2023-05-12T01:19:51.617Z,10.46
2023-05-12T01:22:24.914Z,10.46
2023-05-12T01:24:59.512Z,10.46
2023-05-12T01:27:32.801Z,10.42
2023-05-12T01:30:07.914Z,10.42
2023-05-12T01:32:41.914Z,10.44
2023-05-12T01:35:14.549Z,10.42
2023-05-12T01:37:46.953Z,10.40
2023-05-12T01:40:19.819Z,10.37
2023-05-12T01:42:52.892Z,10.35
2023-05-12T01:45:25.032Z,10.31
2023-05-12T01:47:57.266Z,10.28
2023-05-12T01:50:29.618Z,10.25
2023-05-12T01:53:01.942Z,10.24
2023-05-12T01:55:34.713Z,10.19
2023-05-12T01:58:06.846Z,10.19
2023-05-12T02:00:39.184Z,10.19
2023-05-12T02:03:11.591Z,10.19
2023-05-12T02:05:43.997Z,10.18
2023-05-12T02:08:16.205Z,10.18
2023-05-12T02:10:48.418Z,10.18
2023-05-12T02:13:20.635Z,10.15
2023-05-12T02:15:52.869Z,10.09
2023-05-12T02:18:25.232Z,10.03
2023-05-12T02:20:57.395Z,9.96
2023-05-12T02:23:29.605Z,9.91
2023-05-12T02:26:01.783Z,9.85
2023-05-12T02:28:34.166Z,9.77
2023-05-12T02:31:06.449Z,9.74
2023-05-12T02:33:38.835Z,9.74
2023-05-12T02:36:11.932Z,9.74
2023-05-12T02:38:44.197Z,9.71
2023-05-12T02:41:16.287Z,9.70
2023-05-12T02:43:48.701Z,9.67
2023-05-12T02:46:20.864Z,9.61
2023-05-12T02:48:53.077Z,9.54
2023-05-12T02:51:25.262Z,9.47
2023-05-12T02:53:57.617Z,9.44
2023-05-12T02:56:31.347Z,9.39
2023-05-12T02:59:04.485Z,9.35
2023-05-12T03:01:36.750Z,9.29
2023-05-12T03:04:08.894Z,9.26
2023-05-12T03:06:41.136Z,9.25
2023-05-12T03:09:13.583Z,9.22
2023-05-12T03:11:45.971Z,9.22
2023-05-12T03:14:18.242Z,9.24
2023-05-12T03:16:50.448Z,9.26
2023-05-12T03:19:22.566Z,9.30
2023-05-12T03:21:55.017Z,9.32
2023-05-12T03:24:27.319Z,9.32
2023-05-12T03:26:59.688Z,9.31
2023-05-12T03:29:31.940Z,9.32
2023-05-12T03:32:04.133Z,9.31
2023-05-12T03:34:36.572Z,9.28
2023-05-12T03:37:09.268Z,9.30
2023-05-12T03:39:41.398Z,9.32
2023-05-12T03:42:14.643Z,9.36
2023-05-12T03:44:46.826Z,9.40
2023-05-12T03:47:19.261Z,9.36
2023-05-12T03:49:51.877Z,9.32
2023-05-12T03:52:24.154Z,9.35
2023-05-12T03:54:56.595Z,9.36
2023-05-12T03:57:28.801Z,9.36
2023-05-12T04:00:01.091Z,9.34
2023-05-12T04:02:33.713Z,9.27
2023-05-12T04:05:08.315Z,9.32
2023-05-12T04:07:40.527Z,9.35
2023-05-12T04:10:13.480Z,9.39
2023-05-12T04:12:45.822Z,9.43
2023-05-12T04:15:18.700Z,9.46
2023-05-12T04:17:51.202Z,9.47
2023-05-12T04:20:24.033Z,9.50
2023-05-12T04:22:56.811Z,9.50
2023-05-12T04:25:29.020Z,9.48
2023-05-12T04:28:01.206Z,9.48
2023-05-12T04:30:33.411Z,9.51
2023-05-12T04:33:05.772Z,9.51
2023-05-12T04:35:38.286Z,9.50
2023-05-12T04:38:10.630Z,9.51
2023-05-12T04:40:42.841Z,9.52
2023-05-12T04:45:51.494Z,9.63
2023-05-12T04:48:23.801Z,9.68
2023-05-12T04:50:56.110Z,9.73
2023-05-12T04:53:28.428Z,9.72
2023-05-12T04:56:00.788Z,9.71
2023-05-12T04:58:33.127Z,9.71
2023-05-12T05:01:05.502Z,9.73
2023-05-12T05:03:37.969Z,9.74
2023-05-12T05:06:10.520Z,9.76
2023-05-12T05:08:42.835Z,9.80
2023-05-12T05:11:15.117Z,9.93
2023-05-12T05:13:47.269Z,10.19
2023-05-12T05:16:19.582Z,10.30
2023-05-12T05:18:52.207Z,10.41
2023-05-12T05:21:24.595Z,10.48
2023-05-12T05:23:56.872Z,10.50
2023-05-12T05:26:29.218Z,10.49
2023-05-12T05:29:01.414Z,10.50
2023-05-12T05:31:34.007Z,10.54
2023-05-12T05:34:06.249Z,10.58
2023-05-12T05:36:38.552Z,10.63
2023-05-12T05:39:11.292Z,10.71
2023-05-12T05:41:43.413Z,10.82
2023-05-12T05:44:15.980Z,10.94
2023-05-12T05:46:48.397Z,11.07
2023-05-12T05:49:20.664Z,11.17
2023-05-12T05:51:52.870Z,11.22
2023-05-12T05:54:26.110Z,11.26
2023-05-12T05:57:00.830Z,11.32
2023-05-12T05:59:33.420Z,11.40
2023-05-12T06:02:05.842Z,11.50
2023-05-12T06:04:38.269Z,11.60
2023-05-12T06:07:10.700Z,11.72
2023-05-12T06:09:43.026Z,11.86
2023-05-12T06:12:15.400Z,11.99
2023-05-12T06:14:47.571Z,12.05
2023-05-12T06:17:19.917Z,12.14
2023-05-12T06:19:52.397Z,12.24
2023-05-12T06:22:25.150Z,12.32
2023-05-12T06:24:57.403Z,12.35
2023-05-12T06:27:29.860Z,12.31
2023-05-12T06:30:02.056Z,12.36
2023-05-12T06:32:34.449Z,12.35
2023-05-12T06:35:07.735Z,12.31
2023-05-12T06:37:40.040Z,12.26
2023-05-12T06:40:13.115Z,12.23
2023-05-12T06:42:45.623Z,12.24
2023-05-12T06:45:17.938Z,12.27
2023-05-12T06:47:50.456Z,12.26
2023-05-12T06:50:22.924Z,12.26
2023-05-12T06:52:55.199Z,12.31
2023-05-12T06:55:27.639Z,12.38
2023-05-12T06:57:59.837Z,12.47
2023-05-12T07:00:32.022Z,12.56
2023-05-12T07:03:04.317Z,12.61
2023-05-12T07:05:36.657Z,12.74
2023-05-12T07:08:08.983Z,12.81
2023-05-12T07:10:41.318Z,12.86
2023-05-12T07:13:13.460Z,12.93
2023-05-12T07:15:45.744Z,13.00
2023-05-12T07:18:18.134Z,13.09
2023-05-12T07:20:50.571Z,13.16
2023-05-12T07:23:22.900Z,13.18
2023-05-12T07:25:55.433Z,13.19
2023-05-12T07:28:27.845Z,13.25
2023-05-12T07:31:00.022Z,13.30
2023-05-12T07:33:32.784Z,13.37
2023-05-12T07:36:05.923Z,13.48
2023-05-12T07:38:38.430Z,13.57
2023-05-12T07:41:10.735Z,13.66
2023-05-12T07:43:42.753Z,13.76
2023-05-12T07:46:15.067Z,13.79
2023-05-12T07:48:47.387Z,13.78
2023-05-12T07:51:19.712Z,13.77
2023-05-12T07:53:51.924Z,13.79
2023-05-12T07:56:24.173Z,13.85
2023-05-12T07:58:56.481Z,13.95
2023-05-12T08:01:28.739Z,14.01
2023-05-12T08:04:01.239Z,14.05
2023-05-12T08:06:34.379Z,14.08
2023-05-12T08:09:06.915Z,14.07
2023-05-12T08:11:39.121Z,14.02
2023-05-12T08:14:11.405Z,13.96
2023-05-12T08:16:45.620Z,13.96
2023-05-12T08:19:17.902Z,14.03
2023-05-12T08:21:50.104Z,14.10
2023-05-12T08:24:22.670Z,14.16
2023-05-12T08:26:54.897Z,14.24
2023-05-12T08:29:28.288Z,14.32
2023-05-12T08:32:01.230Z,14.35
2023-05-12T08:34:34.031Z,14.40
2023-05-12T08:37:07.763Z,14.48
2023-05-12T08:39:40.216Z,14.52
2023-05-12T08:42:31.829Z,14.54
2023-05-12T08:45:04.584Z,14.50
2023-05-12T08:47:38.788Z,14.49
2023-05-12T08:50:13.304Z,14.46
2023-05-12T08:52:45.887Z,14.53
2023-05-12T08:55:19.258Z,14.63
2023-05-12T08:57:51.745Z,14.72
2023-05-12T09:00:25.709Z,14.78
2023-05-12T09:02:58.909Z,14.82
2023-05-12T09:05:33.292Z,14.87
2023-05-12T09:08:06.748Z,14.79
2023-05-12T09:10:39.697Z,14.68
2023-05-12T09:13:18.813Z,14.63
2023-05-12T09:15:53.981Z,14.71
2023-05-12T09:18:26.324Z,14.83
2023-05-12T09:20:58.501Z,14.95
2023-05-12T09:23:30.775Z,15.08
2023-05-12T09:26:04.268Z,15.13
2023-05-12T09:28:40.129Z,15.20
2023-05-12T09:31:20.370Z,15.26
2023-05-12T09:33:53.479Z,15.30
2023-05-12T09:36:27.166Z,15.29
2023-05-12T09:39:07.372Z,15.21
2023-05-12T09:41:41.023Z,15.21
2023-05-12T09:44:16.754Z,15.30
2023-05-12T09:46:49.280Z,15.45
2023-05-12T09:49:26.090Z,15.52
2023-05-12T09:51:59.712Z,15.50
2023-05-12T09:54:33.756Z,15.50
2023-05-12T09:57:07.474Z,15.57
2023-05-12T09:59:40.989Z,15.67
2023-05-12T10:02:18.275Z,15.75
2023-05-12T10:04:58.146Z,15.78
2023-05-12T10:07:31.472Z,15.79
2023-05-12T10:10:07.549Z,15.77
2023-05-12T10:12:40.323Z,15.84
2023-05-12T10:15:14.624Z,15.88
2023-05-12T10:17:47.689Z,15.92
2023-05-12T10:20:20.950Z,15.93
2023-05-12T10:22:55.973Z,15.97
2023-05-12T10:25:28.272Z,16.03
2023-05-12T10:28:02.455Z,16.10
2023-05-12T10:30:35.113Z,16.16
2023-05-12T10:33:09.363Z,16.21
2023-05-12T10:35:46.193Z,16.24
2023-05-12T10:38:20.266Z,16.27
2023-05-12T10:41:01.296Z,16.29
2023-05-12T10:43:43.669Z,16.29
2023-05-12T10:46:21.798Z,16.31
2023-05-12T10:48:57.006Z,16.31
2023-05-12T10:51:31.152Z,16.30
2023-05-12T10:54:05.015Z,16.29
2023-05-12T10:56:46.419Z,16.27
2023-05-12T10:59:21.918Z,16.33
2023-05-12T11:02:05.564Z,16.32
2023-05-12T11:04:44.872Z,16.33
2023-05-12T11:07:22.189Z,16.38
2023-05-12T11:09:59.500Z,16.41
2023-05-12T11:12:35.487Z,16.43
2023-05-12T11:15:10.139Z,16.38
2023-05-12T11:17:42.945Z,16.21
2023-05-12T11:20:25.223Z,16.09
2023-05-12T11:22:57.637Z,16.07
2023-05-12T11:25:31.337Z,15.95
2023-05-12T11:28:04.178Z,15.85
2023-05-12T11:30:36.806Z,15.83
2023-05-12T11:33:09.266Z,15.83
2023-05-12T11:35:41.688Z,15.86
2023-05-12T11:38:20.066Z,15.90
2023-05-12T11:40:52.283Z,15.95
2023-05-12T11:43:24.457Z,15.99
2023-05-12T11:45:56.577Z,16.02
2023-05-12T11:48:36.176Z,16.00
2023-05-12T11:51:09.171Z,15.91
2023-05-12T11:53:44.277Z,15.89
2023-05-12T11:56:23.500Z,15.90
2023-05-12T11:58:59.755Z,15.87
2023-05-12T12:01:33.808Z,15.79
2023-05-12T12:04:06.329Z,15.79
2023-05-12T12:06:46.565Z,15.81
2023-05-12T12:09:18.730Z,15.78
2023-05-12T12:11:50.874Z,15.76
2023-05-12T12:14:23.184Z,15.84
2023-05-12T12:16:55.593Z,15.90
2023-05-12T12:19:28.124Z,15.90
2023-05-12T12:22:00.794Z,15.85
2023-05-12T12:24:33.367Z,15.86
2023-05-12T12:27:06.050Z,15.91
2023-05-12T12:29:38.323Z,15.92
2023-05-12T12:32:11.089Z,15.89
2023-05-12T12:34:45.112Z,15.91
2023-05-12T12:37:17.719Z,15.90
2023-05-12T12:39:49.890Z,15.86
2023-05-12T12:42:22.453Z,15.88
2023-05-12T12:44:54.690Z,15.95
2023-05-12T12:47:27.212Z,16.01
2023-05-12T12:49:59.904Z,16.05
2023-05-12T12:52:33.018Z,16.09
2023-05-12T12:55:05.645Z,16.11
2023-05-12T12:57:37.919Z,16.11
2023-05-12T13:00:13.611Z,16.11
2023-05-12T13:02:45.029Z,16.14
2023-05-12T13:05:17.858Z,16.13
2023-05-12T13:07:51.523Z,16.17
2023-05-12T13:10:25.678Z,16.13
2023-05-12T13:12:57.829Z,16.12
2023-05-12T13:15:32.434Z,16.13
2023-05-12T13:18:04.702Z,16.15
2023-05-12T13:20:37.049Z,16.21
2023-05-12T13:23:09.261Z,16.28
2023-05-12T13:25:41.679Z,16.27
2023-05-12T13:28:13.904Z,16.27
2023-05-12T13:30:46.762Z,16.29
2023-05-12T13:33:18.989Z,16.31
2023-05-12T13:35:51.178Z,16.28
2023-05-12T13:38:23.489Z,16.24
2023-05-12T13:40:55.898Z,16.27
2023-05-12T13:43:28.229Z,16.31
2023-05-12T13:46:00.463Z,16.33
2023-05-12T13:48:32.695Z,16.39
2023-05-12T13:51:05.061Z,16.46
2023-05-12T13:53:39.729Z,16.54
2023-05-12T13:56:12.277Z,16.50
2023-05-12T13:58:44.528Z,16.46
2023-05-12T14:01:16.864Z,16.46
2023-05-12T14:03:49.242Z,16.43
2023-05-12T14:06:21.725Z,16.40
2023-05-12T14:08:53.879Z,16.40
2023-05-12T14:11:26.329Z,16.44
2023-05-12T14:14:00.476Z,16.48
2023-05-12T14:16:32.711Z,16.51
2023-05-12T14:19:04.950Z,16.56
2023-05-12T14:21:37.246Z,16.60
2023-05-12T14:24:10.664Z,16.69
2023-05-12T14:26:42.898Z,16.76
2023-05-12T14:29:15.225Z,16.77
2023-05-12T14:31:47.444Z,16.69
2023-05-12T14:34:20.532Z,16.59
2023-05-12T14:36:52.823Z,16.49
2023-05-12T14:39:25.261Z,16.44
2023-05-12T14:41:57.491Z,16.42
2023-05-12T14:44:29.655Z,16.37
2023-05-12T14:47:01.920Z,16.37
2023-05-12T14:49:34.172Z,16.41
2023-05-12T14:52:06.849Z,16.42
2023-05-12T14:54:39.083Z,16.47
2023-05-12T14:57:13.641Z,16.51
2023-05-12T14:59:46.007Z,16.56
2023-05-12T15:02:18.148Z,16.60
2023-05-12T15:04:51.489Z,16.59
2023-05-12T15:07:23.672Z,16.50
2023-05-12T15:09:55.928Z,16.40
2023-05-12T15:12:28.454Z,16.36
2023-05-12T15:15:02.425Z,16.32
2023-05-12T15:17:34.813Z,16.29
2023-05-12T15:20:09.914Z,16.19
2023-05-12T15:22:42.272Z,16.21
2023-05-12T15:25:14.822Z,16.23
2023-05-12T15:27:47.058Z,16.22
2023-05-12T15:30:19.811Z,16.23
2023-05-12T15:32:52.001Z,16.25
2023-05-12T15:35:24.180Z,16.29
2023-05-12T15:37:56.509Z,16.30
2023-05-12T15:40:30.721Z,16.26
2023-05-12T15:43:03.148Z,16.18
2023-05-12T15:45:37.548Z,16.14
2023-05-12T15:48:09.999Z,16.11
2023-05-12T15:50:42.150Z,16.08
2023-05-12T15:53:14.230Z,16.03
2023-05-12T15:55:46.824Z,16.00
2023-05-12T15:58:19.022Z,15.99
2023-05-12T16:00:51.270Z,15.99
2023-05-12T16:03:23.793Z,15.97
2023-05-12T16:05:56.357Z,15.96
2023-05-12T16:08:28.587Z,15.95
2023-05-12T16:11:00.889Z,15.95
2023-05-12T16:13:33.192Z,15.95
2023-05-12T16:16:06.404Z,15.94
2023-05-12T16:18:40.112Z,15.89
2023-05-12T16:21:12.854Z,15.85
2023-05-12T16:23:44.990Z,15.83
2023-05-12T16:26:17.149Z,15.80
2023-05-12T16:28:49.744Z,15.79
2023-05-12T16:31:21.862Z,15.78
2023-05-12T16:33:54.027Z,15.76
2023-05-12T16:36:26.416Z,15.74
2023-05-12T16:38:59.582Z,15.73
2023-05-12T16:41:32.022Z,15.73
2023-05-12T16:44:04.267Z,15.71
2023-05-12T16:46:37.707Z,15.71
2023-05-12T16:49:11.097Z,15.70
2023-05-12T16:51:43.411Z,15.68
2023-05-12T16:54:15.931Z,15.68
2023-05-12T16:56:48.534Z,15.67
2023-05-12T16:59:20.960Z,15.66
2023-05-12T17:01:53.209Z,15.66
2023-05-12T17:04:25.565Z,15.65
2023-05-12T17:06:57.983Z,15.64
2023-05-12T17:09:30.347Z,15.63
2023-05-12T17:12:04.562Z,15.63
2023-05-12T17:14:37.350Z,15.62
2023-05-12T17:17:09.875Z,15.61
2023-05-12T17:19:43.431Z,15.60
2023-05-12T17:22:16.060Z,15.59
2023-05-12T17:24:48.154Z,15.57
2023-05-12T17:27:20.774Z,15.56
2023-05-12T17:29:52.999Z,15.55
2023-05-12T17:32:25.292Z,15.53
2023-05-12T17:34:58.146Z,15.52
2023-05-12T17:37:30.583Z,15.51
2023-05-12T17:40:04.628Z,15.49
2023-05-12T17:42:37.316Z,15.48
2023-05-12T17:45:13.868Z,15.48
2023-05-12T17:47:48.107Z,15.47
2023-05-12T17:50:20.522Z,15.45
2023-05-12T17:52:54.578Z,15.44
2023-05-12T17:55:26.870Z,15.43
2023-05-12T17:57:59.007Z,15.42
2023-05-12T18:00:31.324Z,15.40
2023-05-12T18:03:03.765Z,15.36
2023-05-12T18:05:36.702Z,15.34
2023-05-12T18:08:09.302Z,15.33
2023-05-12T18:10:41.601Z,15.32
2023-05-12T18:13:14.802Z,15.30
2023-05-12T18:15:46.931Z,15.29
2023-05-12T18:18:19.260Z,15.28
2023-05-12T18:20:51.496Z,15.26
2023-05-12T18:23:23.848Z,15.24
2023-05-12T18:25:56.543Z,15.23
2023-05-12T18:28:29.239Z,15.22
2023-05-12T18:31:09.301Z,15.21
2023-05-12T18:33:50.874Z,15.19
2023-05-12T18:36:23.826Z,15.16
2023-05-12T18:38:56.334Z,15.14
2023-05-12T18:41:29.009Z,15.11
2023-05-12T18:44:01.233Z,15.09
2023-05-12T18:46:33.428Z,15.08
2023-05-12T18:49:05.799Z,15.07
2023-05-12T18:51:38.238Z,15.05
2023-05-12T18:54:10.632Z,15.04
2023-05-12T18:56:42.757Z,15.02
2023-05-12T18:59:15.084Z,15.00
2023-05-12T19:01:48.966Z,14.97
2023-05-12T19:04:21.993Z,14.96
2023-05-12T19:06:54.126Z,14.93
2023-05-12T19:09:26.292Z,14.93
2023-05-12T19:11:58.617Z,14.91
2023-05-12T19:14:30.834Z,14.89
2023-05-12T19:17:03.008Z,14.87
2023-05-12T19:19:35.262Z,14.86
2023-05-12T19:22:07.822Z,14.85
2023-05-12T19:24:40.080Z,14.83
2023-05-12T19:27:12.270Z,14.82
2023-05-12T19:29:44.564Z,14.79
2023-05-12T19:32:18.246Z,14.77
2023-05-12T19:34:51.851Z,14.76
2023-05-12T19:37:24.198Z,14.75
2023-05-12T19:39:56.788Z,14.73
2023-05-12T19:42:28.895Z,14.72
2023-05-12T19:45:01.065Z,14.70
2023-05-12T19:47:33.556Z,14.65
2023-05-12T19:50:07.740Z,14.68
2023-05-12T19:52:40.337Z,14.67
2023-05-12T19:55:12.944Z,14.65
2023-05-12T19:57:45.490Z,14.65
2023-05-12T20:00:19.154Z,14.65
2023-05-12T20:02:51.635Z,14.64
2023-05-12T20:05:24.526Z,14.62
2023-05-12T20:07:57.199Z,14.61
2023-05-12T20:10:29.412Z,14.60
2023-05-12T20:13:03.579Z,14.58
2023-05-12T20:15:36.013Z,14.57
2023-05-12T20:18:08.714Z,14.56
2023-05-12T20:20:41.043Z,14.54
2023-05-12T20:23:13.254Z,14.51
2023-05-12T20:25:45.886Z,14.49
2023-05-12T20:28:18.186Z,14.48
2023-05-12T20:30:50.841Z,14.46
2023-05-12T20:33:23.069Z,14.47
2023-05-12T20:35:55.552Z,14.47
2023-05-12T20:38:28.038Z,14.45
2023-05-12T20:41:06.580Z,14.44
2023-05-12T20:43:40.145Z,14.42
2023-05-12T20:46:12.756Z,14.40
2023-05-12T20:48:45.141Z,14.39
2023-05-12T20:51:17.320Z,14.38
2023-05-12T20:53:49.520Z,14.36
2023-05-12T20:56:23.321Z,14.34
2023-05-12T20:58:57.448Z,14.33
2023-05-12T21:01:29.972Z,14.34
2023-05-12T21:04:02.341Z,14.33
2023-05-12T21:06:35.972Z,14.32
2023-05-12T21:09:08.214Z,14.30
2023-05-12T21:11:40.537Z,14.29
2023-05-12T21:14:12.649Z,14.29
2023-05-12T21:16:45.176Z,14.26
2023-05-12T21:19:17.515Z,14.24
2023-05-12T21:21:49.822Z,14.21
2023-05-12T21:24:22.133Z,14.20
2023-05-12T21:26:54.299Z,14.18
2023-05-12T21:29:26.545Z,14.18
2023-05-12T21:31:58.737Z,14.15
2023-05-12T21:34:31.550Z,14.14
2023-05-12T21:37:03.718Z,14.12
2023-05-12T21:39:35.841Z,14.10
2023-05-12T21:42:09.030Z,14.05
2023-05-12T21:44:41.246Z,14.06
2023-05-12T21:47:13.408Z,14.05
2023-05-12T21:49:46.053Z,14.05
2023-05-12T21:52:18.401Z,14.03
2023-05-12T21:54:50.664Z,14.02
2023-05-12T21:57:22.828Z,14.01
2023-05-12T21:59:56.365Z,14.02
2023-05-12T22:02:28.584Z,14.02
2023-05-12T22:05:00.936Z,14.02
2023-05-12T22:07:33.218Z,14.02
2023-05-12T22:10:06.656Z,14.02
2023-05-12T22:12:38.756Z,14.01
2023-05-12T22:15:12.237Z,14.00
2023-05-12T22:17:45.644Z,14.00
2023-05-12T22:20:19.069Z,13.97
2023-05-12T22:22:51.550Z,13.94
2023-05-12T22:25:23.687Z,13.92
2023-05-12T22:27:55.810Z,13.89
2023-05-12T22:30:28.449Z,13.85
2023-05-12T22:33:01.247Z,13.80
2023-05-12T22:35:33.502Z,13.75
2023-05-12T22:38:05.808Z,13.70
2023-05-12T22:40:38.222Z,13.67
2023-05-12T22:43:12.850Z,13.63
2023-05-12T22:45:45.037Z,13.57
2023-05-12T22:48:17.331Z,13.51
2023-05-12T22:50:49.629Z,13.45
2023-05-12T22:53:21.868Z,13.41
2023-05-12T22:55:54.037Z,13.36
2023-05-12T22:58:26.163Z,13.32
2023-05-12T23:00:58.517Z,13.26
2023-05-12T23:03:32.632Z,13.23
2023-05-12T23:06:04.903Z,13.21
2023-05-12T23:08:37.086Z,13.16
2023-05-12T23:11:11.993Z,13.13
2023-05-12T23:13:44.263Z,13.10
2023-05-12T23:16:16.713Z,13.04
2023-05-12T23:18:48.938Z,12.99
2023-05-12T23:21:21.327Z,12.95
2023-05-12T23:23:53.670Z,12.93
2023-05-12T23:26:25.974Z,12.89
2023-05-12T23:28:58.253Z,12.84
2023-05-12T23:31:30.650Z,12.82
2023-05-12T23:34:02.850Z,12.81
2023-05-12T23:36:34.773Z,12.80
2023-05-12T23:39:07.068Z,12.78
2023-05-12T23:41:39.248Z,12.75
2023-05-12T23:44:11.322Z,12.73
2023-05-12T23:46:43.637Z,12.70
2023-05-12T23:49:16.199Z,12.67
2023-05-12T23:51:48.480Z,12.64
2023-05-12T23:54:20.669Z,12.60
2023-05-12T23:56:52.986Z,12.57
2023-05-12T23:59:25.687Z,12.55
